sensor_id;sensor_type;location;lat;lon;timestamp;temperature;humidity
2050;DHT22;8478;49.208;8.806;2023-06-22T00:02:14;21.60;99.90
2050;DHT22;8478;49.208;8.806;2023-06-22T00:04:39;21.60;99.90
2050;DHT22;8478;49.208;8.806;2023-06-22T00:07:05;21.60;99.90
2050;DHT22;8478;49.208;8.806;2023-06-22T00:09:31;21.60;99.90
2050;DHT22;8478;49.208;8.806;2023-06-22T00:11:57;21.60;99.90
2050;DHT22;8478;49.208;8.806;2023-06-22T00:14:23;21.60;99.90
2050;DHT22;8478;49.208;8.806;2023-06-22T00:16:48;21.60;99.90
2050;DHT22;8478;49.208;8.806;2023-06-22T00:19:15;21.60;99.90
2050;DHT22;8478;49.208;8.806;2023-06-22T00:21:41;21.60;99.90
2050;DHT22;8478;49.208;8.806;2023-06-22T00:24:08;21.60;99.90
2050;DHT22;8478;49.208;8.806;2023-06-22T00:26:34;21.60;99.90
2050;DHT22;8478;49.208;8.806;2023-06-22T00:28:59;21.60;99.90
2050;DHT22;8478;49.208;8.806;2023-06-22T00:31:25;21.60;99.90
2050;DHT22;8478;49.208;8.806;2023-06-22T00:33:51;21.60;99.90
2050;DHT22;8478;49.208;8.806;2023-06-22T00:36:16;21.60;99.90
2050;DHT22;8478;49.208;8.806;2023-06-22T00:38:43;21.60;99.90
2050;DHT22;8478;49.208;8.806;2023-06-22T00:41:09;21.60;99.90
2050;DHT22;8478;49.208;8.806;2023-06-22T00:43:35;21.60;99.90
2050;DHT22;8478;49.208;8.806;2023-06-22T00:46:00;21.60;99.90
2050;DHT22;8478;49.208;8.806;2023-06-22T00:48:26;21.60;99.90
2050;DHT22;8478;49.208;8.806;2023-06-22T00:50:52;21.60;99.90
2050;DHT22;8478;49.208;8.806;2023-06-22T00:53:21;21.60;99.90
2050;DHT22;8478;49.208;8.806;2023-06-22T00:55:47;21.60;99.90
2050;DHT22;8478;49.208;8.806;2023-06-22T00:58:13;21.60;99.90
2050;DHT22;8478;49.208;8.806;2023-06-22T01:00:40;21.60;99.90
2050;DHT22;8478;49.208;8.806;2023-06-22T01:03:06;21.60;99.90
2050;DHT22;8478;49.208;8.806;2023-06-22T01:05:36;21.60;99.90
2050;DHT22;8478;49.208;8.806;2023-06-22T01:16:05;21.60;99.90
2050;DHT22;8478;49.208;8.806;2023-06-22T01:18:35;21.60;99.90
2050;DHT22;8478;49.208;8.806;2023-06-22T01:21:04;21.60;99.90
2050;DHT22;8478;49.208;8.806;2023-06-22T01:29:27;21.60;99.90
2050;DHT22;8478;49.208;8.806;2023-06-22T01:31:55;21.60;99.90
2050;DHT22;8478;49.208;8.806;2023-06-22T01:34:22;21.50;99.90
2050;DHT22;8478;49.208;8.806;2023-06-22T01:36:49;21.50;99.90
2050;DHT22;8478;49.208;8.806;2023-06-22T01:39:16;21.60;99.90
2050;DHT22;8478;49.208;8.806;2023-06-22T01:41:42;21.60;99.90
2050;DHT22;8478;49.208;8.806;2023-06-22T01:44:09;21.50;99.90
2050;DHT22;8478;49.208;8.806;2023-06-22T01:46:35;21.50;99.90
2050;DHT22;8478;49.208;8.806;2023-06-22T01:49:02;21.50;99.90
2050;DHT22;8478;49.208;8.806;2023-06-22T01:51:28;21.50;99.90
2050;DHT22;8478;49.208;8.806;2023-06-22T01:53:53;21.50;99.90
2050;DHT22;8478;49.208;8.806;2023-06-22T01:56:19;21.50;99.90
2050;DHT22;8478;49.208;8.806;2023-06-22T01:59:00;21.50;99.90
2050;DHT22;8478;49.208;8.806;2023-06-22T02:01:36;21.50;99.90
2050;DHT22;8478;49.208;8.806;2023-06-22T02:04:13;21.50;99.90
2050;DHT22;8478;49.208;8.806;2023-06-22T02:06:42;21.50;99.90
2050;DHT22;8478;49.208;8.806;2023-06-22T02:09:20;21.50;99.90
2050;DHT22;8478;49.208;8.806;2023-06-22T02:11:47;21.50;99.90
2050;DHT22;8478;49.208;8.806;2023-06-22T02:14:14;21.50;99.90
2050;DHT22;8478;49.208;8.806;2023-06-22T02:16:41;21.50;99.90
2050;DHT22;8478;49.208;8.806;2023-06-22T02:19:07;21.50;99.90
2050;DHT22;8478;49.208;8.806;2023-06-22T02:21:34;21.50;99.90
2050;DHT22;8478;49.208;8.806;2023-06-22T02:23:59;21.50;99.90
2050;DHT22;8478;49.208;8.806;2023-06-22T02:26:26;21.50;99.90
2050;DHT22;8478;49.208;8.806;2023-06-22T02:28:52;21.50;99.90
2050;DHT22;8478;49.208;8.806;2023-06-22T02:31:18;21.50;99.90
2050;DHT22;8478;49.208;8.806;2023-06-22T02:33:45;21.50;99.90
2050;DHT22;8478;49.208;8.806;2023-06-22T02:36:11;21.50;99.90
2050;DHT22;8478;49.208;8.806;2023-06-22T02:38:40;21.40;99.90
2050;DHT22;8478;49.208;8.806;2023-06-22T02:41:14;21.50;99.90
2050;DHT22;8478;49.208;8.806;2023-06-22T02:43:44;21.50;99.90
2050;DHT22;8478;49.208;8.806;2023-06-22T02:46:11;21.50;99.90
2050;DHT22;8478;49.208;8.806;2023-06-22T02:48:36;21.40;99.90
2050;DHT22;8478;49.208;8.806;2023-06-22T02:51:02;21.40;99.90
2050;DHT22;8478;49.208;8.806;2023-06-22T02:53:28;21.40;99.90
2050;DHT22;8478;49.208;8.806;2023-06-22T02:55:53;21.40;99.90
2050;DHT22;8478;49.208;8.806;2023-06-22T02:58:19;21.40;99.90
2050;DHT22;8478;49.208;8.806;2023-06-22T03:00:44;21.40;99.90
2050;DHT22;8478;49.208;8.806;2023-06-22T03:03:10;21.40;99.90
2050;DHT22;8478;49.208;8.806;2023-06-22T03:05:36;21.50;99.90
2050;DHT22;8478;49.208;8.806;2023-06-22T03:08:01;21.40;99.90
2050;DHT22;8478;49.208;8.806;2023-06-22T03:10:27;21.40;99.90
2050;DHT22;8478;49.208;8.806;2023-06-22T03:12:53;21.40;99.90
2050;DHT22;8478;49.208;8.806;2023-06-22T03:15:18;21.40;99.90
2050;DHT22;8478;49.208;8.806;2023-06-22T03:17:44;21.40;99.90
2050;DHT22;8478;49.208;8.806;2023-06-22T03:20:11;21.40;99.90
2050;DHT22;8478;49.208;8.806;2023-06-22T03:22:41;21.40;99.90
2050;DHT22;8478;49.208;8.806;2023-06-22T03:25:09;21.40;99.90
2050;DHT22;8478;49.208;8.806;2023-06-22T03:27:43;21.40;99.90
2050;DHT22;8478;49.208;8.806;2023-06-22T03:30:11;21.40;99.90
2050;DHT22;8478;49.208;8.806;2023-06-22T03:32:37;21.30;99.90
2050;DHT22;8478;49.208;8.806;2023-06-22T03:35:03;21.40;99.90
2050;DHT22;8478;49.208;8.806;2023-06-22T03:37:29;21.40;99.90
2050;DHT22;8478;49.208;8.806;2023-06-22T03:39:55;21.40;99.90
2050;DHT22;8478;49.208;8.806;2023-06-22T03:42:21;21.30;99.90
2050;DHT22;8478;49.208;8.806;2023-06-22T03:44:46;21.30;99.90
2050;DHT22;8478;49.208;8.806;2023-06-22T03:47:13;21.30;99.90
2050;DHT22;8478;49.208;8.806;2023-06-22T03:49:38;21.30;99.90
2050;DHT22;8478;49.208;8.806;2023-06-22T03:52:05;21.40;99.90
2050;DHT22;8478;49.208;8.806;2023-06-22T03:54:31;21.30;99.90
2050;DHT22;8478;49.208;8.806;2023-06-22T03:56:57;21.30;99.90
2050;DHT22;8478;49.208;8.806;2023-06-22T03:59:23;21.30;99.90
2050;DHT22;8478;49.208;8.806;2023-06-22T04:01:49;21.30;99.90
2050;DHT22;8478;49.208;8.806;2023-06-22T04:04:17;21.30;99.90
2050;DHT22;8478;49.208;8.806;2023-06-22T04:06:42;21.30;99.90
2050;DHT22;8478;49.208;8.806;2023-06-22T04:09:08;21.30;99.90
2050;DHT22;8478;49.208;8.806;2023-06-22T04:11:34;21.30;99.90
2050;DHT22;8478;49.208;8.806;2023-06-22T04:14:00;21.30;99.90
2050;DHT22;8478;49.208;8.806;2023-06-22T04:16:25;21.30;99.90
2050;DHT22;8478;49.208;8.806;2023-06-22T04:18:51;21.30;99.90
2050;DHT22;8478;49.208;8.806;2023-06-22T04:21:17;21.30;99.90
2050;DHT22;8478;49.208;8.806;2023-06-22T04:23:45;21.30;99.90
2050;DHT22;8478;49.208;8.806;2023-06-22T04:26:11;21.30;99.90
2050;DHT22;8478;49.208;8.806;2023-06-22T04:28:37;21.30;99.90
2050;DHT22;8478;49.208;8.806;2023-06-22T04:31:03;21.30;99.90
2050;DHT22;8478;49.208;8.806;2023-06-22T04:33:30;21.30;99.90
2050;DHT22;8478;49.208;8.806;2023-06-22T04:35:55;21.30;99.90
2050;DHT22;8478;49.208;8.806;2023-06-22T04:38:26;21.30;99.90
2050;DHT22;8478;49.208;8.806;2023-06-22T04:40:52;21.30;99.90
2050;DHT22;8478;49.208;8.806;2023-06-22T04:43:19;21.30;99.90
2050;DHT22;8478;49.208;8.806;2023-06-22T04:45:45;21.30;99.90
2050;DHT22;8478;49.208;8.806;2023-06-22T04:48:11;21.30;99.90
2050;DHT22;8478;49.208;8.806;2023-06-22T04:50:41;21.30;99.90
2050;DHT22;8478;49.208;8.806;2023-06-22T04:53:07;21.20;99.90
2050;DHT22;8478;49.208;8.806;2023-06-22T04:55:35;21.20;99.90
2050;DHT22;8478;49.208;8.806;2023-06-22T04:58:03;21.20;99.90
2050;DHT22;8478;49.208;8.806;2023-06-22T05:00:30;21.20;99.90
2050;DHT22;8478;49.208;8.806;2023-06-22T05:02:56;21.20;99.90
2050;DHT22;8478;49.208;8.806;2023-06-22T05:05:24;21.20;99.90
2050;DHT22;8478;49.208;8.806;2023-06-22T05:07:51;21.20;99.90
2050;DHT22;8478;49.208;8.806;2023-06-22T05:10:19;21.20;99.90
2050;DHT22;8478;49.208;8.806;2023-06-22T05:12:46;21.20;99.90
2050;DHT22;8478;49.208;8.806;2023-06-22T05:15:12;21.20;99.90
2050;DHT22;8478;49.208;8.806;2023-06-22T05:17:38;21.20;99.90
2050;DHT22;8478;49.208;8.806;2023-06-22T05:20:23;21.30;99.90
2050;DHT22;8478;49.208;8.806;2023-06-22T05:22:49;21.30;99.90
2050;DHT22;8478;49.208;8.806;2023-06-22T05:25:15;21.20;99.90
2050;DHT22;8478;49.208;8.806;2023-06-22T05:27:40;21.30;99.90
2050;DHT22;8478;49.208;8.806;2023-06-22T05:30:07;21.20;99.90
2050;DHT22;8478;49.208;8.806;2023-06-22T05:32:33;21.30;99.90
2050;DHT22;8478;49.208;8.806;2023-06-22T05:34:59;21.20;99.90
2050;DHT22;8478;49.208;8.806;2023-06-22T05:37:25;21.20;99.90
2050;DHT22;8478;49.208;8.806;2023-06-22T05:39:51;21.20;99.90
2050;DHT22;8478;49.208;8.806;2023-06-22T05:42:17;21.20;99.90
2050;DHT22;8478;49.208;8.806;2023-06-22T05:44:42;21.30;99.90
2050;DHT22;8478;49.208;8.806;2023-06-22T05:47:08;21.20;99.90
2050;DHT22;8478;49.208;8.806;2023-06-22T05:49:34;21.30;99.90
2050;DHT22;8478;49.208;8.806;2023-06-22T05:51:59;21.30;99.90
2050;DHT22;8478;49.208;8.806;2023-06-22T05:54:27;21.20;99.90
2050;DHT22;8478;49.208;8.806;2023-06-22T05:56:53;21.20;99.90
2050;DHT22;8478;49.208;8.806;2023-06-22T05:59:19;21.20;99.90
2050;DHT22;8478;49.208;8.806;2023-06-22T06:01:44;21.20;99.90
2050;DHT22;8478;49.208;8.806;2023-06-22T06:04:18;21.20;99.90
2050;DHT22;8478;49.208;8.806;2023-06-22T06:06:44;21.20;99.90
2050;DHT22;8478;49.208;8.806;2023-06-22T06:09:09;21.20;99.90
2050;DHT22;8478;49.208;8.806;2023-06-22T06:11:37;21.20;99.90
2050;DHT22;8478;49.208;8.806;2023-06-22T06:14:02;21.20;99.90
2050;DHT22;8478;49.208;8.806;2023-06-22T06:16:28;21.20;99.90
2050;DHT22;8478;49.208;8.806;2023-06-22T06:18:54;21.20;99.90
2050;DHT22;8478;49.208;8.806;2023-06-22T06:21:21;21.20;99.90
2050;DHT22;8478;49.208;8.806;2023-06-22T06:23:47;21.20;99.90
2050;DHT22;8478;49.208;8.806;2023-06-22T06:26:13;21.20;99.90
2050;DHT22;8478;49.208;8.806;2023-06-22T06:28:41;21.20;99.90
2050;DHT22;8478;49.208;8.806;2023-06-22T06:31:06;21.20;99.90
2050;DHT22;8478;49.208;8.806;2023-06-22T06:33:32;21.20;99.90
2050;DHT22;8478;49.208;8.806;2023-06-22T06:35:58;21.20;99.90
2050;DHT22;8478;49.208;8.806;2023-06-22T06:38:27;21.20;99.90
2050;DHT22;8478;49.208;8.806;2023-06-22T06:40:53;21.20;99.90
2050;DHT22;8478;49.208;8.806;2023-06-22T06:43:18;21.20;99.90
2050;DHT22;8478;49.208;8.806;2023-06-22T06:45:44;21.20;99.90
2050;DHT22;8478;49.208;8.806;2023-06-22T06:48:09;21.20;99.90
2050;DHT22;8478;49.208;8.806;2023-06-22T06:50:35;21.20;99.90
2050;DHT22;8478;49.208;8.806;2023-06-22T06:53:01;21.20;99.90
2050;DHT22;8478;49.208;8.806;2023-06-22T06:55:26;21.20;99.90
2050;DHT22;8478;49.208;8.806;2023-06-22T06:57:54;21.20;99.90
2050;DHT22;8478;49.208;8.806;2023-06-22T07:00:20;21.20;99.90
2050;DHT22;8478;49.208;8.806;2023-06-22T07:02:46;21.30;99.90
2050;DHT22;8478;49.208;8.806;2023-06-22T07:05:13;21.30;99.90
2050;DHT22;8478;49.208;8.806;2023-06-22T07:07:39;21.20;99.90
2050;DHT22;8478;49.208;8.806;2023-06-22T07:10:06;21.30;99.90
2050;DHT22;8478;49.208;8.806;2023-06-22T07:12:31;21.20;99.90
2050;DHT22;8478;49.208;8.806;2023-06-22T07:15:08;21.20;99.90
2050;DHT22;8478;49.208;8.806;2023-06-22T07:17:35;21.30;99.90
2050;DHT22;8478;49.208;8.806;2023-06-22T07:20:01;21.30;99.90
2050;DHT22;8478;49.208;8.806;2023-06-22T07:22:27;21.30;99.90
2050;DHT22;8478;49.208;8.806;2023-06-22T07:24:53;21.30;99.90
2050;DHT22;8478;49.208;8.806;2023-06-22T07:27:18;21.30;99.90
2050;DHT22;8478;49.208;8.806;2023-06-22T07:29:45;21.20;99.90
2050;DHT22;8478;49.208;8.806;2023-06-22T07:32:11;21.30;99.90
2050;DHT22;8478;49.208;8.806;2023-06-22T07:34:36;21.30;99.90
2050;DHT22;8478;49.208;8.806;2023-06-22T07:37:02;21.30;99.90
2050;DHT22;8478;49.208;8.806;2023-06-22T07:39:29;21.30;99.90
2050;DHT22;8478;49.208;8.806;2023-06-22T07:41:55;21.30;99.90
2050;DHT22;8478;49.208;8.806;2023-06-22T07:44:21;21.30;99.90
2050;DHT22;8478;49.208;8.806;2023-06-22T07:46:47;21.30;99.90
2050;DHT22;8478;49.208;8.806;2023-06-22T07:49:12;21.30;99.90
2050;DHT22;8478;49.208;8.806;2023-06-22T07:51:38;21.30;99.90
2050;DHT22;8478;49.208;8.806;2023-06-22T07:54:04;21.30;99.90
2050;DHT22;8478;49.208;8.806;2023-06-22T07:56:29;21.30;99.90
2050;DHT22;8478;49.208;8.806;2023-06-22T07:58:55;21.30;99.90
2050;DHT22;8478;49.208;8.806;2023-06-22T08:01:23;21.30;99.90
2050;DHT22;8478;49.208;8.806;2023-06-22T08:03:49;21.30;99.90
2050;DHT22;8478;49.208;8.806;2023-06-22T08:06:15;21.30;99.90
2050;DHT22;8478;49.208;8.806;2023-06-22T08:08:42;21.30;99.90
2050;DHT22;8478;49.208;8.806;2023-06-22T08:11:08;21.30;99.90
2050;DHT22;8478;49.208;8.806;2023-06-22T08:13:34;21.30;99.90
2050;DHT22;8478;49.208;8.806;2023-06-22T08:16:00;21.30;99.90
2050;DHT22;8478;49.208;8.806;2023-06-22T08:18:25;21.30;99.90
2050;DHT22;8478;49.208;8.806;2023-06-22T08:20:51;21.30;99.90
2050;DHT22;8478;49.208;8.806;2023-06-22T08:23:17;21.40;99.90
2050;DHT22;8478;49.208;8.806;2023-06-22T08:25:43;21.60;99.90
2050;DHT22;8478;49.208;8.806;2023-06-22T08:28:09;21.70;99.90
2050;DHT22;8478;49.208;8.806;2023-06-22T08:30:35;21.80;99.90
2050;DHT22;8478;49.208;8.806;2023-06-22T08:33:00;21.70;99.90
2050;DHT22;8478;49.208;8.806;2023-06-22T08:35:26;21.70;99.90
2050;DHT22;8478;49.208;8.806;2023-06-22T08:37:52;21.60;99.90
2050;DHT22;8478;49.208;8.806;2023-06-22T08:40:21;21.50;99.90
2050;DHT22;8478;49.208;8.806;2023-06-22T08:42:47;21.50;99.90
2050;DHT22;8478;49.208;8.806;2023-06-22T08:45:14;21.50;99.90
2050;DHT22;8478;49.208;8.806;2023-06-22T08:47:40;21.50;99.90
2050;DHT22;8478;49.208;8.806;2023-06-22T08:50:10;21.40;99.90
2050;DHT22;8478;49.208;8.806;2023-06-22T08:52:37;21.50;99.90
2050;DHT22;8478;49.208;8.806;2023-06-22T08:55:04;21.40;99.90
2050;DHT22;8478;49.208;8.806;2023-06-22T08:57:30;21.40;99.90
2050;DHT22;8478;49.208;8.806;2023-06-22T08:59:59;21.40;99.90
2050;DHT22;8478;49.208;8.806;2023-06-22T09:02:25;21.40;99.90
2050;DHT22;8478;49.208;8.806;2023-06-22T09:04:57;21.40;99.90
2050;DHT22;8478;49.208;8.806;2023-06-22T09:07:23;21.40;99.90
2050;DHT22;8478;49.208;8.806;2023-06-22T09:09:50;21.40;99.90
2050;DHT22;8478;49.208;8.806;2023-06-22T09:12:16;21.40;99.90
2050;DHT22;8478;49.208;8.806;2023-06-22T09:14:42;21.40;99.90
2050;DHT22;8478;49.208;8.806;2023-06-22T09:17:08;21.40;99.90
2050;DHT22;8478;49.208;8.806;2023-06-22T09:19:33;21.40;99.90
2050;DHT22;8478;49.208;8.806;2023-06-22T09:22:00;21.40;99.90
2050;DHT22;8478;49.208;8.806;2023-06-22T09:24:26;21.40;99.90
2050;DHT22;8478;49.208;8.806;2023-06-22T09:26:51;21.50;99.90
2050;DHT22;8478;49.208;8.806;2023-06-22T09:29:17;21.40;99.90
2050;DHT22;8478;49.208;8.806;2023-06-22T09:31:43;21.40;99.90
2050;DHT22;8478;49.208;8.806;2023-06-22T09:34:09;21.40;99.90
2050;DHT22;8478;49.208;8.806;2023-06-22T09:36:35;21.50;99.90
2050;DHT22;8478;49.208;8.806;2023-06-22T09:39:01;21.40;99.90
2050;DHT22;8478;49.208;8.806;2023-06-22T09:41:31;21.50;99.90
2050;DHT22;8478;49.208;8.806;2023-06-22T09:43:57;21.40;99.90
2050;DHT22;8478;49.208;8.806;2023-06-22T09:46:23;21.50;99.90
2050;DHT22;8478;49.208;8.806;2023-06-22T09:48:50;21.40;99.90
2050;DHT22;8478;49.208;8.806;2023-06-22T09:51:16;21.50;99.90
2050;DHT22;8478;49.208;8.806;2023-06-22T09:53:42;21.50;99.90
2050;DHT22;8478;49.208;8.806;2023-06-22T09:56:08;21.50;99.90
2050;DHT22;8478;49.208;8.806;2023-06-22T09:58:42;21.50;99.90
2050;DHT22;8478;49.208;8.806;2023-06-22T10:01:08;21.50;99.90
2050;DHT22;8478;49.208;8.806;2023-06-22T10:03:33;21.50;99.90
2050;DHT22;8478;49.208;8.806;2023-06-22T10:05:59;21.50;99.90
2050;DHT22;8478;49.208;8.806;2023-06-22T10:08:25;21.50;99.90
2050;DHT22;8478;49.208;8.806;2023-06-22T10:10:50;21.50;99.90
2050;DHT22;8478;49.208;8.806;2023-06-22T10:13:16;21.50;99.90
2050;DHT22;8478;49.208;8.806;2023-06-22T10:15:42;21.50;99.90
2050;DHT22;8478;49.208;8.806;2023-06-22T10:18:08;21.50;99.90
2050;DHT22;8478;49.208;8.806;2023-06-22T10:20:33;21.50;99.90
2050;DHT22;8478;49.208;8.806;2023-06-22T10:22:59;21.60;99.90
2050;DHT22;8478;49.208;8.806;2023-06-22T10:25:26;21.60;99.90
2050;DHT22;8478;49.208;8.806;2023-06-22T10:27:51;21.60;99.90
2050;DHT22;8478;49.208;8.806;2023-06-22T10:30:17;21.60;99.90
2050;DHT22;8478;49.208;8.806;2023-06-22T10:32:43;21.50;99.90
2050;DHT22;8478;49.208;8.806;2023-06-22T10:35:09;21.50;99.90
2050;DHT22;8478;49.208;8.806;2023-06-22T10:37:36;21.50;99.90
2050;DHT22;8478;49.208;8.806;2023-06-22T10:40:02;21.60;99.90
2050;DHT22;8478;49.208;8.806;2023-06-22T10:42:29;21.60;99.90
2050;DHT22;8478;49.208;8.806;2023-06-22T10:44:55;21.60;99.90
2050;DHT22;8478;49.208;8.806;2023-06-22T10:47:20;21.60;99.90
2050;DHT22;8478;49.208;8.806;2023-06-22T10:49:46;21.60;99.90
2050;DHT22;8478;49.208;8.806;2023-06-22T10:52:12;21.60;99.90
2050;DHT22;8478;49.208;8.806;2023-06-22T10:54:38;21.60;99.90
2050;DHT22;8478;49.208;8.806;2023-06-22T10:57:04;21.60;99.90
2050;DHT22;8478;49.208;8.806;2023-06-22T10:59:30;21.60;99.90
2050;DHT22;8478;49.208;8.806;2023-06-22T11:01:56;21.60;99.90
2050;DHT22;8478;49.208;8.806;2023-06-22T11:04:23;21.60;99.90
2050;DHT22;8478;49.208;8.806;2023-06-22T11:06:49;21.60;99.90
2050;DHT22;8478;49.208;8.806;2023-06-22T11:09:15;21.60;99.90
2050;DHT22;8478;49.208;8.806;2023-06-22T11:11:46;21.60;99.90
2050;DHT22;8478;49.208;8.806;2023-06-22T11:14:12;21.60;99.90
2050;DHT22;8478;49.208;8.806;2023-06-22T11:16:37;21.60;99.90
2050;DHT22;8478;49.208;8.806;2023-06-22T11:19:05;21.60;99.90
2050;DHT22;8478;49.208;8.806;2023-06-22T11:21:30;21.60;99.90
2050;DHT22;8478;49.208;8.806;2023-06-22T11:23:57;21.60;99.90
2050;DHT22;8478;49.208;8.806;2023-06-22T11:26:23;21.60;99.90
2050;DHT22;8478;49.208;8.806;2023-06-22T11:28:48;21.60;99.90
2050;DHT22;8478;49.208;8.806;2023-06-22T11:31:14;21.60;99.90
2050;DHT22;8478;49.208;8.806;2023-06-22T11:33:40;21.60;99.90
2050;DHT22;8478;49.208;8.806;2023-06-22T11:36:05;21.60;99.90
2050;DHT22;8478;49.208;8.806;2023-06-22T11:38:31;21.60;99.90
2050;DHT22;8478;49.208;8.806;2023-06-22T11:41:00;21.60;99.90
2050;DHT22;8478;49.208;8.806;2023-06-22T11:43:26;21.60;99.90
2050;DHT22;8478;49.208;8.806;2023-06-22T11:45:51;21.70;99.90
2050;DHT22;8478;49.208;8.806;2023-06-22T11:48:17;21.70;99.90
2050;DHT22;8478;49.208;8.806;2023-06-22T11:50:43;21.70;99.90
2050;DHT22;8478;49.208;8.806;2023-06-22T11:53:08;21.70;99.90
2050;DHT22;8478;49.208;8.806;2023-06-22T11:55:34;21.70;99.90
2050;DHT22;8478;49.208;8.806;2023-06-22T11:58:00;21.70;99.90
2050;DHT22;8478;49.208;8.806;2023-06-22T12:00:29;21.70;99.90
2050;DHT22;8478;49.208;8.806;2023-06-22T12:02:55;21.60;99.90
2050;DHT22;8478;49.208;8.806;2023-06-22T12:05:22;21.70;99.90
2050;DHT22;8478;49.208;8.806;2023-06-22T12:07:48;21.70;99.90
2050;DHT22;8478;49.208;8.806;2023-06-22T12:10:14;21.70;99.90
2050;DHT22;8478;49.208;8.806;2023-06-22T12:12:40;21.70;99.90
2050;DHT22;8478;49.208;8.806;2023-06-22T12:15:06;21.70;99.90
2050;DHT22;8478;49.208;8.806;2023-06-22T12:17:33;21.70;99.90
2050;DHT22;8478;49.208;8.806;2023-06-22T12:19:59;21.70;99.90
2050;DHT22;8478;49.208;8.806;2023-06-22T12:22:25;21.70;99.90
2050;DHT22;8478;49.208;8.806;2023-06-22T12:24:51;21.70;99.90
2050;DHT22;8478;49.208;8.806;2023-06-22T12:27:17;21.70;99.90
2050;DHT22;8478;49.208;8.806;2023-06-22T12:29:45;21.70;99.90
2050;DHT22;8478;49.208;8.806;2023-06-22T12:32:11;21.70;99.90
2050;DHT22;8478;49.208;8.806;2023-06-22T12:34:38;21.70;99.90
2050;DHT22;8478;49.208;8.806;2023-06-22T12:37:04;21.70;99.90
2050;DHT22;8478;49.208;8.806;2023-06-22T12:39:31;21.70;99.90
2050;DHT22;8478;49.208;8.806;2023-06-22T12:41:57;21.70;99.90
2050;DHT22;8478;49.208;8.806;2023-06-22T12:44:23;21.70;99.90
2050;DHT22;8478;49.208;8.806;2023-06-22T12:46:48;21.80;99.90
2050;DHT22;8478;49.208;8.806;2023-06-22T12:49:14;21.70;99.90
2050;DHT22;8478;49.208;8.806;2023-06-22T12:51:41;21.70;99.90
2050;DHT22;8478;49.208;8.806;2023-06-22T12:54:08;21.80;99.90
2050;DHT22;8478;49.208;8.806;2023-06-22T12:56:34;21.80;99.90
2050;DHT22;8478;49.208;8.806;2023-06-22T12:58:59;21.80;99.90
2050;DHT22;8478;49.208;8.806;2023-06-22T13:01:30;21.80;99.90
2050;DHT22;8478;49.208;8.806;2023-06-22T13:03:58;21.80;99.90
2050;DHT22;8478;49.208;8.806;2023-06-22T13:06:24;21.80;99.90
2050;DHT22;8478;49.208;8.806;2023-06-22T13:08:50;21.80;99.90
2050;DHT22;8478;49.208;8.806;2023-06-22T13:11:16;21.80;99.90
2050;DHT22;8478;49.208;8.806;2023-06-22T13:13:45;21.80;99.90
2050;DHT22;8478;49.208;8.806;2023-06-22T13:16:11;21.80;99.90
2050;DHT22;8478;49.208;8.806;2023-06-22T13:18:37;21.80;99.90
2050;DHT22;8478;49.208;8.806;2023-06-22T13:21:04;21.80;99.90
2050;DHT22;8478;49.208;8.806;2023-06-22T13:23:30;21.80;99.90
2050;DHT22;8478;49.208;8.806;2023-06-22T13:25:55;21.80;99.90
2050;DHT22;8478;49.208;8.806;2023-06-22T13:28:21;21.80;99.90
2050;DHT22;8478;49.208;8.806;2023-06-22T13:30:47;21.80;99.90
2050;DHT22;8478;49.208;8.806;2023-06-22T13:33:13;21.80;99.90
2050;DHT22;8478;49.208;8.806;2023-06-22T13:35:39;21.90;99.90
2050;DHT22;8478;49.208;8.806;2023-06-22T13:38:11;21.80;99.90
2050;DHT22;8478;49.208;8.806;2023-06-22T13:40:37;21.90;99.90
2050;DHT22;8478;49.208;8.806;2023-06-22T13:43:05;21.90;99.90
2050;DHT22;8478;49.208;8.806;2023-06-22T13:45:31;21.90;99.90
2050;DHT22;8478;49.208;8.806;2023-06-22T13:47:57;21.90;99.90
2050;DHT22;8478;49.208;8.806;2023-06-22T13:50:23;21.90;99.90
2050;DHT22;8478;49.208;8.806;2023-06-22T13:52:48;21.90;99.90
2050;DHT22;8478;49.208;8.806;2023-06-22T13:55:14;21.90;99.90
2050;DHT22;8478;49.208;8.806;2023-06-22T13:57:40;21.90;99.90
2050;DHT22;8478;49.208;8.806;2023-06-22T14:00:07;21.90;99.90
2050;DHT22;8478;49.208;8.806;2023-06-22T14:02:38;21.90;99.90
2050;DHT22;8478;49.208;8.806;2023-06-22T14:05:03;21.90;99.90
2050;DHT22;8478;49.208;8.806;2023-06-22T14:07:29;21.90;99.90
2050;DHT22;8478;49.208;8.806;2023-06-22T14:09:55;21.90;99.90
2050;DHT22;8478;49.208;8.806;2023-06-22T14:12:20;22.00;99.90
2050;DHT22;8478;49.208;8.806;2023-06-22T14:14:46;21.90;99.90
2050;DHT22;8478;49.208;8.806;2023-06-22T14:17:12;21.90;99.90
2050;DHT22;8478;49.208;8.806;2023-06-22T14:19:37;21.90;99.90
2050;DHT22;8478;49.208;8.806;2023-06-22T14:22:03;22.00;99.90
2050;DHT22;8478;49.208;8.806;2023-06-22T14:24:29;22.00;99.90
2050;DHT22;8478;49.208;8.806;2023-06-22T14:26:55;22.00;99.90
2050;DHT22;8478;49.208;8.806;2023-06-22T14:29:25;22.00;99.90
2050;DHT22;8478;49.208;8.806;2023-06-22T14:31:50;22.00;99.90
2050;DHT22;8478;49.208;8.806;2023-06-22T14:34:16;22.00;99.90
2050;DHT22;8478;49.208;8.806;2023-06-22T14:36:42;22.00;99.90
2050;DHT22;8478;49.208;8.806;2023-06-22T14:39:09;22.00;99.90
2050;DHT22;8478;49.208;8.806;2023-06-22T14:41:34;22.00;99.90
2050;DHT22;8478;49.208;8.806;2023-06-22T14:44:00;22.00;99.90
2050;DHT22;8478;49.208;8.806;2023-06-22T14:46:27;22.00;99.90
2050;DHT22;8478;49.208;8.806;2023-06-22T14:48:52;22.00;99.90
2050;DHT22;8478;49.208;8.806;2023-06-22T14:51:18;22.00;99.90
2050;DHT22;8478;49.208;8.806;2023-06-22T14:53:44;22.00;99.90
2050;DHT22;8478;49.208;8.806;2023-06-22T14:56:11;22.00;99.90
2050;DHT22;8478;49.208;8.806;2023-06-22T14:58:40;22.00;99.90
2050;DHT22;8478;49.208;8.806;2023-06-22T15:01:06;22.00;99.90
2050;DHT22;8478;49.208;8.806;2023-06-22T15:03:34;22.00;99.90
2050;DHT22;8478;49.208;8.806;2023-06-22T15:06:01;22.00;99.90
2050;DHT22;8478;49.208;8.806;2023-06-22T15:08:28;22.00;99.90
2050;DHT22;8478;49.208;8.806;2023-06-22T15:10:54;22.10;99.90
2050;DHT22;8478;49.208;8.806;2023-06-22T15:13:20;22.10;99.90
2050;DHT22;8478;49.208;8.806;2023-06-22T15:15:47;22.00;99.90
2050;DHT22;8478;49.208;8.806;2023-06-22T15:18:16;22.10;99.90
2050;DHT22;8478;49.208;8.806;2023-06-22T15:20:43;22.10;99.90
2050;DHT22;8478;49.208;8.806;2023-06-22T15:23:13;22.10;99.90
2050;DHT22;8478;49.208;8.806;2023-06-22T15:25:39;22.10;99.90
2050;DHT22;8478;49.208;8.806;2023-06-22T15:28:05;22.10;99.90
2050;DHT22;8478;49.208;8.806;2023-06-22T15:30:31;22.10;99.90
2050;DHT22;8478;49.208;8.806;2023-06-22T15:32:57;22.10;99.90
2050;DHT22;8478;49.208;8.806;2023-06-22T15:35:23;22.10;99.90
2050;DHT22;8478;49.208;8.806;2023-06-22T15:37:49;22.10;99.90
2050;DHT22;8478;49.208;8.806;2023-06-22T15:40:16;22.10;99.90
2050;DHT22;8478;49.208;8.806;2023-06-22T15:42:42;22.10;99.90
2050;DHT22;8478;49.208;8.806;2023-06-22T15:45:09;22.10;99.90
2050;DHT22;8478;49.208;8.806;2023-06-22T15:47:35;22.10;99.90
2050;DHT22;8478;49.208;8.806;2023-06-22T15:50:00;22.10;99.90
2050;DHT22;8478;49.208;8.806;2023-06-22T15:52:26;22.20;99.90
2050;DHT22;8478;49.208;8.806;2023-06-22T15:54:52;22.20;99.90
2050;DHT22;8478;49.208;8.806;2023-06-22T15:57:20;22.20;99.90
2050;DHT22;8478;49.208;8.806;2023-06-22T15:59:45;22.20;99.90
2050;DHT22;8478;49.208;8.806;2023-06-22T16:02:11;22.20;99.90
2050;DHT22;8478;49.208;8.806;2023-06-22T16:04:37;22.20;99.90
2050;DHT22;8478;49.208;8.806;2023-06-22T16:07:03;22.20;99.90
2050;DHT22;8478;49.208;8.806;2023-06-22T16:09:29;22.20;99.90
2050;DHT22;8478;49.208;8.806;2023-06-22T16:11:56;22.20;99.90